Time;durP1;ratioP1;P1;durP2;ratioP2;P2;SDS_P1;SDS_P2;PMS_P1;PMS_P2;Temp;Humidity;BMP_temperature;BMP_pressure;BME280_temperature;BME280_humidity;BME280_pressure;Samples;Min_cycle;Max_cycle;Signal;HPM_P1;HPM_P2
2022/12/01 00:00:11;;;;;;;59.17;20.33;;;3.30;99.90;;;;;;5037212;28;20463;-57
2022/12/01 00:02:38;;;;;;;35.60;15.93;;;3.30;99.90;;;;;;5037272;28;20469;-57
2022/12/01 00:05:05;;;;;;;45.17;16.87;;;3.30;99.90;;;;;;5036842;28;20461;-55
2022/12/01 00:07:32;;;;;;;39.57;15.57;;;3.30;99.90;;;;;;5037085;28;20484;-53
2022/12/01 00:12:47;;;;;;;43.93;19.50;;;3.30;99.90;;;;;;5034149;28;20416;-52
2022/12/01 00:15:14;;;;;;;47.50;17.40;;;3.30;99.90;;;;;;5049713;28;20471;-56
2022/12/01 00:17:42;;;;;;;41.30;19.30;;;3.20;99.90;;;;;;5056840;28;20444;-55
2022/12/01 00:20:10;;;;;;;41.07;18.50;;;3.20;99.90;;;;;;5055882;28;20463;-57
2022/12/01 00:22:37;;;;;;;54.40;19.43;;;3.20;99.90;;;;;;5056748;28;20428;-56
2022/12/01 00:25:04;;;;;;;44.37;17.60;;;3.20;99.90;;;;;;5045034;28;20484;-57
2022/12/01 00:27:31;;;;;;;42.30;16.97;;;3.20;99.90;;;;;;5037449;28;20432;-58
2022/12/01 00:30:00;;;;;;;47.83;15.80;;;3.20;99.90;;;;;;5043052;28;20464;-56
2022/12/01 00:32:26;;;;;;;45.17;16.90;;;3.20;99.90;;;;;;5054131;28;20455;-58
2022/12/01 00:34:53;;;;;;;52.50;18.17;;;3.20;99.90;;;;;;5049445;28;20457;-55
2022/12/01 00:37:20;;;;;;;52.53;17.80;;;3.20;99.90;;;;;;5037422;28;20489;-52
2022/12/01 00:39:47;;;;;;;45.03;15.83;;;3.20;99.90;;;;;;5037090;28;20471;-55
2022/12/01 00:42:14;;;;;;;44.47;16.20;;;3.20;99.90;;;;;;5037190;28;20476;-57
2022/12/01 00:44:41;;;;;;;50.23;17.20;;;3.20;99.90;;;;;;5032719;28;20461;-58
2022/12/01 00:47:09;;;;;;;28.90;12.50;;;3.20;99.90;;;;;;5036318;28;20463;-57
2022/12/01 00:49:48;;;;;;;39.90;15.70;;;3.10;99.90;;;;;;5037167;28;20527;-54
2022/12/01 00:52:16;;;;;;;39.37;13.60;;;3.10;99.90;;;;;;5037702;28;20452;-54
2022/12/01 00:54:44;;;;;;;38.57;19.57;;;3.00;99.90;;;;;;5037218;28;20484;-58
2022/12/01 00:57:11;;;;;;;39.20;15.33;;;3.10;99.90;;;;;;5037156;28;20449;-56
2022/12/01 00:59:38;;;;;;;48.03;14.57;;;3.10;99.90;;;;;;5037295;28;20493;-57
2022/12/01 01:02:06;;;;;;;44.03;15.30;;;3.10;99.90;;;;;;5037379;28;20457;-52
2022/12/01 01:04:35;;;;;;;23.80;11.47;;;3.10;99.90;;;;;;5031849;28;20456;-56
2022/12/01 01:07:02;;;;;;;47.43;15.17;;;3.10;99.90;;;;;;5036774;28;20541;-55
2022/12/01 01:09:31;;;;;;;37.33;15.90;;;3.00;99.90;;;;;;5057234;28;20529;-52
2022/12/01 01:11:58;;;;;;;26.90;13.90;;;3.00;99.90;;;;;;5057350;28;20459;-56
2022/12/01 01:14:25;;;;;;;42.07;16.03;;;3.00;99.90;;;;;;5037982;28;20480;-59
2022/12/01 01:16:52;;;;;;;26.80;13.90;;;3.00;99.90;;;;;;5037766;28;20452;-63
2022/12/01 01:19:19;;;;;;;36.63;13.73;;;3.00;99.90;;;;;;5054817;28;20458;-63
2022/12/01 01:21:48;;;;;;;35.00;12.17;;;3.10;99.90;;;;;;5056434;28;20440;-53
2022/12/01 01:24:15;;;;;;;39.17;14.43;;;3.10;99.90;;;;;;5056038;28;20468;-55
2022/12/01 01:26:42;;;;;;;35.10;15.37;;;3.10;99.90;;;;;;5056122;28;20497;-58
2022/12/01 01:29:09;;;;;;;33.77;13.93;;;3.10;99.90;;;;;;5034325;28;20527;-58
2022/12/01 01:31:39;;;;;;;35.57;13.70;;;3.10;99.90;;;;;;5035948;28;20441;-58
2022/12/01 01:34:06;;;;;;;37.50;15.13;;;3.10;99.90;;;;;;5028131;28;20476;-54
2022/12/01 01:36:33;;;;;;;45.33;17.60;;;3.10;99.90;;;;;;5036313;28;20448;-56
2022/12/01 01:39:02;;;;;;;47.27;16.97;;;3.00;99.90;;;;;;5036281;28;20457;-56
2022/12/01 01:41:29;;;;;;;46.60;18.70;;;3.00;99.90;;;;;;5036667;28;20445;-60
2022/12/01 01:43:57;;;;;;;36.93;15.40;;;3.10;99.90;;;;;;5055019;28;20444;-62
2022/12/01 01:46:28;;;;;;;33.57;11.77;;;3.00;99.90;;;;;;5055973;28;20700;-53
2022/12/01 01:48:59;;;;;;;42.53;17.77;;;3.10;99.90;;;;;;5039374;28;20472;-54
2022/12/01 01:51:30;;;;;;;44.30;15.47;;;3.10;99.90;;;;;;5036969;28;20497;-54
2022/12/01 01:54:04;;;;;;;37.83;11.83;;;3.10;99.90;;;;;;5029736;28;20465;-59
2022/12/01 01:56:31;;;;;;;33.10;15.03;;;3.10;99.90;;;;;;5046667;28;20460;-52
2022/12/01 01:58:59;;;;;;;44.47;18.03;;;3.10;99.90;;;;;;5056432;28;20437;-57
2022/12/01 02:01:26;;;;;;;41.67;13.37;;;3.10;99.90;;;;;;5046832;28;20463;-55
2022/12/01 02:03:54;;;;;;;30.13;13.57;;;3.00;99.90;;;;;;5049784;28;20464;-60
2022/12/01 02:06:23;;;;;;;37.73;13.80;;;3.10;99.90;;;;;;5055513;28;20467;-60
2022/12/01 02:08:50;;;;;;;42.80;14.00;;;3.10;99.90;;;;;;5055759;28;20502;-62
2022/12/01 02:11:48;;;;;;;38.70;13.40;;;3.10;99.90;;;;;;5055536;28;20471;-56
2022/12/01 02:14:38;;;;;;;37.97;12.37;;;3.00;99.90;;;;;;5053104;28;20449;-55
2022/12/01 02:17:16;;;;;;;40.73;16.43;;;3.10;99.90;;;;;;5042002;28;20449;-57
2022/12/01 02:20:02;;;;;;;35.77;16.20;;;3.10;99.90;;;;;;5035564;28;20453;-57
2022/12/01 02:22:43;;;;;;;48.00;19.10;;;3.10;99.90;;;;;;5035958;28;20448;-58
2022/12/01 02:25:20;;;;;;;55.70;21.77;;;3.00;99.90;;;;;;5035524;28;20425;-55
2022/12/01 02:28:12;;;;;;;57.43;26.13;;;2.90;99.90;;;;;;5037690;28;20480;-57
2022/12/01 02:30:46;;;;;;;50.60;25.37;;;3.00;99.90;;;;;;5035016;28;20460;-57
2022/12/01 02:33:17;;;;;;;52.50;24.50;;;3.00;99.90;;;;;;5035369;28;20476;-53
2022/12/01 02:35:49;;;;;;;54.20;22.13;;;3.00;99.90;;;;;;5027355;28;20426;-57
2022/12/01 02:38:24;;;;;;;66.87;21.30;;;3.00;99.90;;;;;;5032870;28;20457;-56
2022/12/01 02:41:00;;;;;;;40.33;15.37;;;3.00;99.90;;;;;;5035117;28;20437;-56
2022/12/01 02:43:31;;;;;;;39.93;15.60;;;2.90;99.90;;;;;;5041891;28;20479;-50
2022/12/01 02:46:05;;;;;;;36.67;13.50;;;2.90;99.90;;;;;;5040706;28;20492;-57
2022/12/01 02:48:35;;;;;;;29.37;13.10;;;2.90;99.90;;;;;;5034959;28;20476;-52
2022/12/01 02:51:07;;;;;;;45.27;13.87;;;2.90;99.90;;;;;;5034726;28;20468;-58
2022/12/01 02:53:35;;;;;;;36.43;15.77;;;2.90;99.90;;;;;;5034355;28;20471;-58
2022/12/01 02:56:13;;;;;;;38.73;13.23;;;2.90;99.90;;;;;;5042314;28;20483;-57
2022/12/01 02:58:40;;;;;;;35.87;13.47;;;2.80;99.90;;;;;;5035278;28;20471;-56
2022/12/01 03:01:32;;;;;;;32.47;13.10;;;2.80;99.90;;;;;;5035540;28;20480;-52
2022/12/01 03:04:28;;;;;;;36.57;13.60;;;2.80;99.90;;;;;;5027663;28;20528;-59
2022/12/01 03:07:03;;;;;;;35.30;13.03;;;2.80;99.90;;;;;;5032447;28;20484;-57
2022/12/01 03:09:47;;;;;;;43.23;15.40;;;2.70;99.90;;;;;;5028327;28;20568;-56
2022/12/01 03:12:20;;;;;;;55.03;14.07;;;2.70;99.90;;;;;;5034383;28;20483;-59
2022/12/01 03:15:00;;;;;;;29.40;12.40;;;2.80;99.90;;;;;;5027547;28;20521;-57
2022/12/01 03:17:35;;;;;;;46.77;17.57;;;2.70;99.90;;;;;;5034995;28;20496;-59
2022/12/01 03:20:07;;;;;;;33.77;13.23;;;2.70;99.90;;;;;;5040731;28;20484;-58
2022/12/01 03:22:39;;;;;;;30.83;11.40;;;2.70;99.90;;;;;;5054130;28;20496;-53
2022/12/01 03:25:09;;;;;;;41.20;12.77;;;2.70;99.90;;;;;;5041518;28;20495;-58
2022/12/01 03:55:27;;;;;;;35.63;13.67;;;2.50;99.90;;;;;;5070087;28;20423;-56
2022/12/01 03:57:59;;;;;;;34.83;14.97;;;2.40;99.90;;;;;;5043756;28;20488;-59
2022/12/01 04:00:26;;;;;;;38.40;13.63;;;2.40;99.90;;;;;;5038867;28;20409;-54
2022/12/01 04:02:55;;;;;;;44.60;16.83;;;2.40;99.90;;;;;;5037649;28;20476;-58
2022/12/01 04:05:22;;;;;;;47.63;18.17;;;2.40;99.90;;;;;;5038376;28;20437;-55
2022/12/01 04:07:49;;;;;;;45.30;17.53;;;2.50;99.90;;;;;;5038266;28;20485;-55
2022/12/01 04:10:16;;;;;;;53.03;18.30;;;2.50;99.90;;;;;;5033519;28;20536;-59
2022/12/01 04:12:42;;;;;;;49.30;15.67;;;2.50;99.90;;;;;;5038171;28;20465;-59
2022/12/01 04:15:13;;;;;;;41.27;15.10;;;2.50;99.90;;;;;;5037863;28;20508;-58
2022/12/01 04:17:42;;;;;;;41.97;13.73;;;2.50;99.90;;;;;;5047187;28;20499;-56
2022/12/01 04:20:10;;;;;;;39.30;14.80;;;2.50;99.90;;;;;;5058582;28;20471;-61
2022/12/01 04:22:37;;;;;;;41.37;15.60;;;2.50;99.90;;;;;;5058124;28;20448;-58
2022/12/01 04:25:05;;;;;;;36.47;15.60;;;2.50;99.90;;;;;;5058558;28;20467;-56
2022/12/01 04:27:33;;;;;;;47.47;16.50;;;2.50;99.90;;;;;;5057867;28;20490;-58
2022/12/01 04:30:00;;;;;;;35.97;13.13;;;2.50;99.90;;;;;;5058017;28;20491;-60
2022/12/01 04:32:28;;;;;;;51.23;17.50;;;2.50;99.90;;;;;;5051742;28;20516;-54
2022/12/01 04:34:55;;;;;;;53.03;17.70;;;2.50;99.90;;;;;;5037948;28;20476;-60
2022/12/01 04:37:22;;;;;;;48.13;16.23;;;2.50;99.90;;;;;;5042225;28;20479;-61
2022/12/01 04:39:49;;;;;;;38.93;13.70;;;2.50;99.90;;;;;;5049841;28;20455;-53
2022/12/01 04:42:16;;;;;;;41.90;16.83;;;2.50;99.90;;;;;;5050937;28;20460;-58
2022/12/01 04:44:42;;;;;;;48.03;19.80;;;2.50;99.90;;;;;;5037600;28;20448;-56
2022/12/01 04:47:09;;;;;;;46.27;17.20;;;2.50;99.90;;;;;;5037558;28;20517;-56
2022/12/01 04:49:38;;;;;;;52.63;18.40;;;2.50;99.90;;;;;;5038450;28;20481;-56
2022/12/01 04:52:05;;;;;;;42.33;18.80;;;2.50;99.90;;;;;;5057610;28;20441;-58
2022/12/01 04:54:32;;;;;;;38.37;15.77;;;2.50;99.90;;;;;;5055588;28;20456;-57
2022/12/01 04:56:59;;;;;;;49.87;18.50;;;2.60;99.90;;;;;;5056193;28;20883;-58
2022/12/01 04:59:25;;;;;;;57.90;18.43;;;2.50;99.90;;;;;;5056916;28;20464;-59
2022/12/01 05:01:52;;;;;;;54.63;18.00;;;2.60;99.90;;;;;;5037409;28;20481;-57
2022/12/01 05:04:19;;;;;;;47.57;15.60;;;2.60;99.90;;;;;;5037110;28;20445;-56
2022/12/01 05:06:47;;;;;;;53.43;16.60;;;2.60;99.90;;;;;;5032100;28;20456;-59
2022/12/01 05:09:16;;;;;;;34.43;15.60;;;2.60;99.90;;;;;;5036409;28;20480;-57
2022/12/01 05:11:43;;;;;;;42.13;15.07;;;2.50;99.90;;;;;;5036765;28;20477;-59
2022/12/01 05:14:10;;;;;;;45.77;17.77;;;2.50;99.90;;;;;;5036486;28;20436;-59
2022/12/01 05:16:36;;;;;;;48.50;19.97;;;2.50;99.90;;;;;;5036962;28;20825;-57
2022/12/01 05:21:52;;;;;;;44.90;20.30;;;2.50;99.90;;;;;;5030908;28;20488;-57
2022/12/01 05:24:20;;;;;;;32.37;13.00;;;2.50;99.90;;;;;;5036658;28;20532;-59
2022/12/01 05:26:48;;;;;;;40.60;17.60;;;2.50;99.90;;;;;;5036689;28;20504;-57
2022/12/01 05:29:14;;;;;;;36.43;15.80;;;2.40;99.90;;;;;;5036161;28;20480;-55
2022/12/01 05:31:41;;;;;;;47.93;19.70;;;2.50;99.90;;;;;;5036147;28;20491;-56
2022/12/01 05:34:09;;;;;;;44.40;17.40;;;2.50;99.90;;;;;;5034935;28;20479;-59
2022/12/01 05:36:36;;;;;;;50.27;19.43;;;2.60;99.90;;;;;;5033502;28;20488;-56
2022/12/01 05:39:06;;;;;;;46.97;17.97;;;2.60;99.90;;;;;;5035686;28;20457;-57
2022/12/01 05:41:36;;;;;;;45.20;17.97;;;2.50;99.90;;;;;;5036038;28;20468;-58
2022/12/01 05:44:03;;;;;;;41.77;15.67;;;2.50;99.90;;;;;;5036433;28;20449;-54
2022/12/01 05:46:31;;;;;;;42.30;17.13;;;2.50;99.90;;;;;;5033403;28;20489;-59
2022/12/01 05:48:58;;;;;;;47.07;17.70;;;2.50;99.90;;;;;;5036420;28;20469;-54
2022/12/01 05:51:25;;;;;;;42.50;15.77;;;2.50;99.90;;;;;;5047105;28;20472;-55
2022/12/01 05:53:52;;;;;;;38.10;16.03;;;2.50;99.90;;;;;;5055702;28;20451;-55
2022/12/01 05:56:20;;;;;;;36.60;15.43;;;2.40;99.90;;;;;;5054956;28;20461;-55
2022/12/01 05:58:47;;;;;;;43.30;18.70;;;2.40;99.90;;;;;;5056165;28;20436;-53
2022/12/01 06:01:14;;;;;;;41.60;14.83;;;2.40;99.90;;;;;;5054536;28;20448;-56
2022/12/01 06:03:41;;;;;;;46.00;17.30;;;2.40;99.90;;;;;;5055395;28;20479;-50
2022/12/01 06:06:08;;;;;;;38.70;15.93;;;2.50;99.90;;;;;;5036163;28;20449;-55
2022/12/01 06:08:35;;;;;;;46.97;19.07;;;2.50;99.90;;;;;;5034293;28;20514;-57
2022/12/01 06:11:03;;;;;;;50.00;19.40;;;2.50;99.90;;;;;;5034853;28;20488;-57
2022/12/01 06:13:34;;;;;;;43.63;15.20;;;2.50;99.90;;;;;;5028215;28;20453;-58
2022/12/01 06:16:03;;;;;;;45.67;17.40;;;2.50;99.90;;;;;;5027639;28;20437;-53
2022/12/01 06:18:32;;;;;;;33.00;16.50;;;2.50;99.90;;;;;;5037062;28;20448;-61
2022/12/01 06:20:58;;;;;;;45.17;17.23;;;2.50;99.90;;;;;;5048994;28;20448;-61
2022/12/01 06:23:25;;;;;;;33.90;15.27;;;2.50;99.90;;;;;;5055202;28;20444;-59
2022/12/01 06:25:52;;;;;;;46.93;17.10;;;2.50;99.90;;;;;;5035826;28;20476;-56
2022/12/01 06:28:21;;;;;;;43.07;18.57;;;2.50;99.90;;;;;;5035750;28;20449;-61
2022/12/01 06:30:49;;;;;;;37.93;17.90;;;2.50;99.90;;;;;;5035439;28;20491;-57
2022/12/01 06:33:16;;;;;;;40.87;16.00;;;2.50;99.90;;;;;;5035470;28;20487;-57
2022/12/01 06:35:43;;;;;;;36.67;15.93;;;2.50;99.90;;;;;;5037143;28;20551;-56
2022/12/01 06:38:10;;;;;;;38.93;17.73;;;2.50;99.90;;;;;;5035407;28;20449;-56
2022/12/01 06:40:37;;;;;;;38.67;15.27;;;2.50;99.90;;;;;;5051261;28;20444;-55
2022/12/01 06:43:05;;;;;;;45.40;19.67;;;2.50;99.90;;;;;;5055012;28;20487;-55
2022/12/01 06:45:32;;;;;;;52.87;18.47;;;2.50;99.90;;;;;;5038602;28;20517;-57
2022/12/01 06:48:00;;;;;;;43.33;17.30;;;2.50;99.90;;;;;;5035178;28;20500;-55
2022/12/01 06:50:27;;;;;;;40.53;18.90;;;2.50;99.90;;;;;;5035377;28;20468;-59
2022/12/01 06:52:55;;;;;;;54.17;21.87;;;2.50;99.90;;;;;;5035110;28;20433;-55
2022/12/01 06:55:22;;;;;;;52.57;20.80;;;2.50;99.90;;;;;;5048711;28;20448;-59
2022/12/01 06:57:48;;;;;;;37.97;17.00;;;2.50;99.90;;;;;;5054945;28;20455;-54
2022/12/01 07:00:16;;;;;;;44.07;16.20;;;2.60;99.90;;;;;;5045674;28;20450;-57
2022/12/01 07:02:43;;;;;;;42.07;18.50;;;2.60;99.90;;;;;;5055259;28;20436;-51
2022/12/01 07:05:11;;;;;;;44.53;18.70;;;2.60;99.90;;;;;;5044601;28;20476;-55
2022/12/01 07:07:39;;;;;;;47.60;20.10;;;2.60;99.90;;;;;;5036534;28;20449;-52
2022/12/01 07:10:08;;;;;;;43.87;16.87;;;2.60;99.90;;;;;;5055642;28;20508;-57
2022/12/01 07:12:35;;;;;;;40.60;17.53;;;2.60;99.90;;;;;;5049914;28;20425;-55
2022/12/01 07:15:03;;;;;;;46.97;16.67;;;2.60;99.90;;;;;;5038217;28;20468;-57
2022/12/01 07:17:30;;;;;;;52.33;21.50;;;2.60;99.90;;;;;;5049564;28;20455;-54
2022/12/01 07:19:57;;;;;;;57.80;21.40;;;2.60;99.90;;;;;;5043038;28;20457;-54
2022/12/01 07:22:25;;;;;;;66.43;21.50;;;2.60;99.90;;;;;;5035206;28;20479;-59
2022/12/01 07:24:52;;;;;;;61.30;21.27;;;2.60;99.90;;;;;;5035333;28;20445;-59
2022/12/01 07:27:22;;;;;;;54.83;20.83;;;2.60;99.90;;;;;;5035526;28;20492;-53
2022/12/01 07:29:48;;;;;;;70.57;25.20;;;2.60;99.90;;;;;;5038029;28;20544;-55
2022/12/01 07:32:16;;;;;;;53.30;20.97;;;2.60;99.90;;;;;;5041335;28;20463;-56
2022/12/01 07:34:42;;;;;;;56.33;21.73;;;2.60;99.90;;;;;;5048203;28;20468;-63
2022/12/01 07:37:09;;;;;;;54.87;21.77;;;2.60;99.90;;;;;;5035100;28;20476;-59
2022/12/01 07:39:38;;;;;;;57.67;21.57;;;2.70;99.90;;;;;;5037246;28;20476;-57
2022/12/01 07:42:05;;;;;;;48.23;21.37;;;2.70;99.90;;;;;;5035451;28;20875;-58
2022/12/01 07:44:32;;;;;;;61.37;25.97;;;2.70;99.90;;;;;;5035908;28;20461;-56
2022/12/01 07:46:59;;;;;;;57.73;23.50;;;2.80;99.90;;;;;;5035544;28;20445;-55
2022/12/01 07:49:25;;;;;;;55.03;20.80;;;2.80;99.90;;;;;;5035280;28;20460;-57
2022/12/01 07:51:52;;;;;;;68.60;21.40;;;2.80;99.90;;;;;;5035711;28;20434;-53
2022/12/01 07:54:20;;;;;;;73.03;22.93;;;2.80;99.90;;;;;;5035942;28;20441;-54
2022/12/01 07:56:48;;;;;;;58.83;23.77;;;2.80;99.90;;;;;;5035406;28;20495;-55
2022/12/01 07:59:15;;;;;;;73.90;24.17;;;2.80;99.90;;;;;;5035511;28;20445;-55
2022/12/01 08:01:42;;;;;;;72.40;22.77;;;2.80;99.90;;;;;;5029991;28;20465;-53
2022/12/01 08:04:09;;;;;;;70.87;26.43;;;2.80;99.90;;;;;;5035710;28;20480;-52
2022/12/01 08:06:36;;;;;;;63.63;23.90;;;2.80;99.90;;;;;;5035504;28;20433;-55
2022/12/01 08:09:05;;;;;;;65.90;25.67;;;2.80;99.90;;;;;;5035508;28;20468;-52
2022/12/01 08:11:32;;;;;;;79.90;22.60;;;2.80;99.90;;;;;;5036014;28;20549;-56
2022/12/01 08:14:00;;;;;;;62.10;23.20;;;2.80;99.90;;;;;;5036162;28;20460;-54
2022/12/01 08:16:27;;;;;;;45.60;19.47;;;2.80;99.90;;;;;;5039268;28;20445;-55
2022/12/01 08:18:57;;;;;;;57.03;21.47;;;2.80;99.90;;;;;;5033736;28;20511;-51
2022/12/01 08:21:26;;;;;;;68.30;23.10;;;2.80;99.90;;;;;;5038209;28;20445;-56
2022/12/01 08:23:55;;;;;;;71.87;25.20;;;2.80;99.90;;;;;;5038575;28;20511;-58
2022/12/01 08:26:23;;;;;;;77.60;27.77;;;2.80;99.90;;;;;;5039409;28;20413;-55
2022/12/01 08:28:50;;;;;;;60.10;25.17;;;2.80;99.90;;;;;;5039142;28;20469;-53
2022/12/01 08:31:21;;;;;;;54.33;20.67;;;2.80;99.90;;;;;;5039870;28;20452;-53
2022/12/01 08:33:49;;;;;;;72.30;25.47;;;2.80;99.90;;;;;;5038495;28;20485;-54
2022/12/01 08:36:17;;;;;;;51.97;19.47;;;2.80;99.90;;;;;;5032376;28;20429;-55
2022/12/01 08:38:45;;;;;;;67.30;25.97;;;2.90;99.90;;;;;;5038894;28;20451;-55
2022/12/01 08:41:12;;;;;;;62.17;24.33;;;2.90;99.90;;;;;;5035783;28;20444;-54
2022/12/01 08:43:41;;;;;;;81.93;27.53;;;2.90;99.90;;;;;;5035917;28;20452;-54
2022/12/01 08:46:08;;;;;;;71.30;22.77;;;2.90;99.90;;;;;;5038646;28;20457;-54
2022/12/01 08:48:37;;;;;;;60.33;22.07;;;2.90;99.90;;;;;;5039239;28;20453;-60
2022/12/01 08:51:06;;;;;;;63.23;22.00;;;3.00;99.90;;;;;;5039189;28;20491;-57
2022/12/01 08:53:35;;;;;;;87.43;23.00;;;3.00;99.90;;;;;;5039700;28;20468;-56
2022/12/01 08:56:04;;;;;;;60.57;22.90;;;2.90;99.90;;;;;;5036196;28;20483;-60
2022/12/01 08:58:31;;;;;;;83.20;26.33;;;3.20;99.90;;;;;;5037504;28;20476;-61
2022/12/01 09:01:03;;;;;;;72.67;22.57;;;3.30;99.90;;;;;;5038949;28;20457;-59
2022/12/01 09:03:32;;;;;;;62.60;24.97;;;3.20;99.90;;;;;;5039347;28;20917;-58
2022/12/01 09:06:06;;;;;;;65.20;22.83;;;3.20;99.90;;;;;;5032592;28;20477;-58
2022/12/01 09:08:34;;;;;;;64.10;23.13;;;3.20;99.90;;;;;;5038114;28;20464;-56
2022/12/01 09:11:04;;;;;;;59.37;23.17;;;3.20;99.90;;;;;;5038188;28;20481;-55
2022/12/01 09:13:32;;;;;;;50.47;19.10;;;3.20;99.90;;;;;;5038584;28;20429;-58
2022/12/01 09:16:00;;;;;;;51.50;20.97;;;3.10;99.90;;;;;;5037761;28;20480;-56
2022/12/01 09:18:28;;;;;;;71.40;26.20;;;3.10;99.90;;;;;;5038631;28;20437;-58
2022/12/01 09:20:55;;;;;;;62.70;25.03;;;3.00;99.90;;;;;;5038357;28;20465;-58
2022/12/01 09:23:24;;;;;;;64.83;24.00;;;3.00;99.90;;;;;;5033319;28;20456;-59
2022/12/01 09:25:52;;;;;;;76.67;24.53;;;2.90;99.90;;;;;;5037293;28;20441;-59
2022/12/01 09:28:20;;;;;;;57.03;22.97;;;3.00;99.90;;;;;;5030307;28;20442;-58
2022/12/01 09:30:47;;;;;;;67.67;25.97;;;3.10;99.90;;;;;;5038190;28;20485;-59
2022/12/01 09:33:14;;;;;;;63.90;21.17;;;3.10;99.90;;;;;;5037699;28;20445;-58
2022/12/01 09:35:41;;;;;;;63.60;23.47;;;3.10;99.90;;;;;;5029941;28;20441;-58
2022/12/01 09:38:08;;;;;;;67.97;28.10;;;3.10;99.90;;;;;;5037222;28;20436;-57
2022/12/01 09:40:40;;;;;;;66.93;23.63;;;3.10;99.90;;;;;;5037710;28;20445;-55
2022/12/01 09:43:15;;;;;;;79.03;24.40;;;3.10;99.90;;;;;;5037270;28;20422;-56
2022/12/01 09:45:46;;;;;;;72.90;25.20;;;3.10;99.90;;;;;;5037778;28;20425;-57
2022/12/01 09:48:31;;;;;;;63.50;22.80;;;3.10;99.90;;;;;;5030930;28;20507;-59
2022/12/01 09:50:58;;;;;;;66.00;21.17;;;3.20;99.90;;;;;;5037191;28;20453;-59
2022/12/01 09:53:28;;;;;;;67.20;26.10;;;3.20;99.90;;;;;;5037617;28;20461;-58
2022/12/01 09:55:57;;;;;;;76.70;23.17;;;3.20;99.90;;;;;;5037569;28;20468;-60
2022/12/01 09:58:29;;;;;;;63.73;23.53;;;3.20;99.90;;;;;;5037666;28;20479;-58
2022/12/01 10:00:59;;;;;;;62.27;23.63;;;3.20;99.90;;;;;;5037789;28;20426;-56
2022/12/01 10:03:34;;;;;;;59.07;22.03;;;3.20;99.90;;;;;;5037388;28;20467;-59
2022/12/01 10:06:05;;;;;;;47.67;18.20;;;3.10;99.90;;;;;;5037308;28;20432;-56
2022/12/01 10:08:39;;;;;;;63.60;24.43;;;3.20;99.90;;;;;;5030035;28;20484;-58
2022/12/01 10:11:16;;;;;;;73.57;26.10;;;3.10;99.90;;;;;;5035406;28;20492;-58
2022/12/01 10:13:43;;;;;;;61.93;23.13;;;3.20;99.90;;;;;;5036645;28;20477;-58
2022/12/01 10:16:13;;;;;;;68.77;27.27;;;3.20;99.90;;;;;;5035985;28;20479;-59
2022/12/01 10:18:51;;;;;;;65.97;23.37;;;3.10;99.90;;;;;;5030961;28;20472;-55
2022/12/01 10:21:27;;;;;;;59.67;22.63;;;3.10;99.90;;;;;;5027768;28;20874;-61
2022/12/01 10:24:07;;;;;;;52.47;24.83;;;3.10;99.90;;;;;;5030223;28;20487;-52
2022/12/01 10:26:50;;;;;;;68.60;24.10;;;3.10;99.90;;;;;;5036325;28;20429;-53
2022/12/01 10:29:27;;;;;;;40.07;18.50;;;3.20;99.90;;;;;;5036493;28;20492;-55
2022/12/01 10:31:56;;;;;;;48.13;19.03;;;3.20;99.90;;;;;;5035576;28;20611;-58
2022/12/01 10:34:27;;;;;;;54.87;21.20;;;3.20;99.90;;;;;;5035909;28;20488;-57
2022/12/01 10:36:54;;;;;;;65.03;23.33;;;3.20;99.90;;;;;;5035325;28;20410;-54
2022/12/01 10:39:28;;;;;;;59.97;21.70;;;3.20;99.90;;;;;;5036384;28;20510;-53
2022/12/01 10:42:06;;;;;;;54.10;24.27;;;3.20;99.90;;;;;;5036048;28;20433;-56
2022/12/01 10:44:34;;;;;;;53.40;20.37;;;3.30;99.90;;;;;;5035890;28;20489;-58
2022/12/01 10:47:03;;;;;;;64.30;22.83;;;3.30;99.90;;;;;;5036467;28;20457;-56
2022/12/01 10:49:37;;;;;;;60.50;23.03;;;3.20;99.90;;;;;;5036213;28;20517;-54
2022/12/01 10:52:05;;;;;;;49.80;21.53;;;3.10;99.90;;;;;;5029364;28;20511;-58
2022/12/01 10:54:37;;;;;;;57.57;23.27;;;3.10;99.90;;;;;;5034169;28;20456;-53
2022/12/01 10:57:07;;;;;;;60.37;24.70;;;3.20;99.90;;;;;;5036612;28;20436;-57
2022/12/01 10:59:38;;;;;;;68.47;22.77;;;3.10;99.90;;;;;;5035514;28;20440;-53
2022/12/01 11:02:17;;;;;;;42.70;20.47;;;3.20;99.90;;;;;;5035630;28;20465;-57
2022/12/01 11:04:53;;;;;;;67.00;22.80;;;3.20;99.90;;;;;;5035726;28;20460;-56
2022/12/01 11:07:23;;;;;;;34.67;16.60;;;3.30;99.90;;;;;;5036065;28;20485;-59
2022/12/01 11:10:04;;;;;;;54.87;22.13;;;3.30;99.90;;;;;;5036005;28;20458;-58
2022/12/01 11:12:33;;;;;;;55.47;23.60;;;3.30;99.90;;;;;;5035789;28;20564;-58
2022/12/01 11:15:02;;;;;;;39.90;18.37;;;3.40;99.90;;;;;;5035850;28;20441;-59
2022/12/01 11:17:34;;;;;;;54.63;20.60;;;3.40;99.90;;;;;;5035070;28;20449;-56
2022/12/01 11:20:26;;;;;;;57.87;22.33;;;3.40;99.90;;;;;;5030170;28;20457;-55
2022/12/01 11:23:14;;;;;;;48.60;23.90;;;3.40;99.90;;;;;;5036098;28;20492;-55
2022/12/01 11:25:56;;;;;;;64.70;20.93;;;3.50;99.90;;;;;;5035817;28;20452;-56
2022/12/01 11:28:28;;;;;;;49.37;20.03;;;3.40;99.90;;;;;;5035529;28;20434;-53
2022/12/01 11:30:57;;;;;;;53.57;23.47;;;3.40;99.90;;;;;;5035481;28;20520;-58
2022/12/01 11:33:24;;;;;;;43.87;19.10;;;3.40;99.90;;;;;;5035644;28;20444;-57
2022/12/01 11:35:51;;;;;;;50.90;18.93;;;3.40;99.90;;;;;;5035237;28;20449;-55
2022/12/01 11:38:21;;;;;;;48.43;21.83;;;3.40;99.90;;;;;;5035779;28;20440;-56
2022/12/01 11:40:51;;;;;;;57.90;17.53;;;3.40;99.90;;;;;;5035629;28;20485;-57
2022/12/01 11:43:28;;;;;;;44.80;19.00;;;3.40;99.90;;;;;;5036166;28;20488;-57
2022/12/01 11:45:56;;;;;;;45.70;19.90;;;3.40;99.90;;;;;;5036150;28;20432;-53
2022/12/01 11:48:26;;;;;;;49.77;21.97;;;3.40;99.90;;;;;;5035929;28;20456;-59
2022/12/01 11:51:06;;;;;;;51.23;20.93;;;3.40;99.90;;;;;;5039566;28;20540;-57
2022/12/01 11:53:36;;;;;;;58.07;19.40;;;3.40;99.90;;;;;;5040430;28;20461;-53
2022/12/01 11:56:22;;;;;;;47.07;20.17;;;3.40;99.90;;;;;;5041044;28;20424;-59
2022/12/01 11:58:55;;;;;;;41.90;18.13;;;3.40;99.90;;;;;;5037813;28;20765;-60
2022/12/01 12:01:38;;;;;;;54.23;20.73;;;3.40;99.90;;;;;;5038391;28;20413;-58
2022/12/01 12:04:17;;;;;;;45.20;18.53;;;3.40;99.90;;;;;;5039218;28;20499;-57
2022/12/01 12:06:49;;;;;;;57.20;20.10;;;3.40;99.90;;;;;;5039359;28;20405;-58
2022/12/01 12:09:36;;;;;;;47.47;18.97;;;3.50;99.90;;;;;;5039475;28;20461;-59
2022/12/01 12:12:15;;;;;;;45.60;18.50;;;3.50;99.90;;;;;;5039525;28;20475;-58
2022/12/01 12:14:56;;;;;;;49.23;22.23;;;3.40;99.90;;;;;;5039388;28;20502;-56
2022/12/01 12:17:47;;;;;;;51.00;19.67;;;3.40;99.90;;;;;;5039278;28;20421;-59
2022/12/01 12:20:34;;;;;;;32.63;15.40;;;3.40;99.90;;;;;;5032001;28;20417;-53
2022/12/01 12:23:15;;;;;;;39.43;17.00;;;3.50;99.90;;;;;;5039689;28;20461;-52
2022/12/01 12:25:55;;;;;;;38.93;18.80;;;3.40;99.90;;;;;;5035189;28;20766;-59
2022/12/01 12:28:35;;;;;;;44.27;16.77;;;3.40;99.90;;;;;;5036757;28;20421;-60
2022/12/01 12:31:13;;;;;;;39.30;17.97;;;3.40;99.90;;;;;;5032157;28;20465;-58
2022/12/01 12:34:03;;;;;;;37.87;17.27;;;3.40;99.90;;;;;;5039855;28;20429;-59
2022/12/01 12:36:45;;;;;;;42.63;17.80;;;3.50;99.90;;;;;;5028445;28;20508;-53
2022/12/01 12:39:29;;;;;;;42.70;19.03;;;3.50;99.90;;;;;;5039322;28;20465;-61
2022/12/01 12:41:57;;;;;;;48.03;20.10;;;3.50;99.90;;;;;;5036150;28;20440;-60
2022/12/01 12:44:43;;;;;;;41.77;16.93;;;3.40;99.90;;;;;;5038641;28;20465;-62
2022/12/01 12:47:37;;;;;;;46.40;17.17;;;3.50;99.90;;;;;;5036871;28;20463;-58
2022/12/01 12:50:17;;;;;;;39.87;16.70;;;3.50;99.90;;;;;;5037477;28;20465;-61
2022/12/01 12:52:48;;;;;;;47.37;18.77;;;3.50;99.90;;;;;;5037626;28;20476;-56
2022/12/01 12:55:22;;;;;;;50.10;18.77;;;3.50;99.90;;;;;;5038528;28;20465;-58
2022/12/01 12:57:54;;;;;;;44.90;18.83;;;3.60;99.90;;;;;;5037984;28;20425;-57
2022/12/01 13:00:28;;;;;;;44.00;17.93;;;3.50;99.90;;;;;;5037491;28;20493;-58
2022/12/01 13:03:00;;;;;;;37.43;16.10;;;3.60;99.90;;;;;;5038023;28;20759;-59
2022/12/01 13:05:35;;;;;;;53.90;19.67;;;3.60;99.90;;;;;;5029181;28;20504;-58
2022/12/01 13:08:05;;;;;;;35.60;15.93;;;3.50;99.90;;;;;;5037589;28;20436;-59
2022/12/01 13:10:38;;;;;;;38.73;17.43;;;3.50;99.90;;;;;;5037383;28;20464;-60
2022/12/01 13:13:20;;;;;;;33.73;14.57;;;3.50;99.90;;;;;;5037789;28;20525;-58
2022/12/01 13:15:50;;;;;;;46.27;19.53;;;3.40;99.90;;;;;;5037269;28;20421;-58
2022/12/01 13:18:27;;;;;;;35.80;18.07;;;3.40;99.90;;;;;;5037479;28;20444;-56
2022/12/01 13:20:56;;;;;;;44.33;16.63;;;3.50;99.90;;;;;;5037311;28;20437;-59
2022/12/01 13:23:24;;;;;;;39.30;16.20;;;3.50;99.90;;;;;;5037650;28;20433;-57
2022/12/01 13:25:54;;;;;;;43.50;18.13;;;3.50;99.90;;;;;;5038011;28;20533;-58